createdAt,value
2023-01-23T00:02:27.259Z,27.77
2023-01-23T00:04:57.299Z,27.75
2023-01-23T00:07:27.203Z,27.78
2023-01-23T00:09:57.250Z,27.75
2023-01-23T00:12:27.811Z,27.70
2023-01-23T00:14:57.870Z,27.70
2023-01-23T00:17:31.837Z,27.71
2023-01-23T00:20:02.519Z,27.72
2023-01-23T00:22:33.217Z,27.76
2023-01-23T00:25:03.038Z,27.75
2023-01-23T00:27:33.228Z,27.77
2023-01-23T00:30:03.415Z,27.76
2023-01-23T00:32:33.515Z,27.74
2023-01-23T00:35:06.308Z,27.78
2023-01-23T00:37:36.385Z,27.76
2023-01-23T00:40:06.530Z,27.76
2023-01-23T00:42:36.534Z,27.76
2023-01-23T00:45:06.718Z,27.76
2023-01-23T00:47:36.578Z,27.74
2023-01-23T00:50:06.707Z,27.72
2023-01-23T00:52:36.579Z,27.73
2023-01-23T00:55:07.522Z,27.72
2023-01-23T00:57:37.561Z,27.74
2023-01-23T01:00:07.961Z,27.77
2023-01-23T01:02:38.187Z,27.75
2023-01-23T01:05:08.997Z,27.77
2023-01-23T01:07:39.185Z,27.74
2023-01-23T01:10:09.341Z,27.77
2023-01-23T01:12:40.699Z,27.76
2023-01-23T01:15:12.097Z,27.74
2023-01-23T01:17:42.062Z,27.79
2023-01-23T01:20:13.217Z,27.79
2023-01-23T01:22:43.266Z,27.80
2023-01-23T01:25:13.449Z,27.81
2023-01-23T01:27:43.649Z,27.80
2023-01-23T01:30:15.647Z,27.84
2023-01-23T01:32:46.117Z,27.88
2023-01-23T01:35:16.892Z,27.87
2023-01-23T01:37:46.852Z,27.88
2023-01-23T01:40:31.095Z,27.92
2023-01-23T01:43:04.713Z,27.89
2023-01-23T01:46:05.540Z,27.90
2023-01-23T01:48:50.605Z,27.93
2023-01-23T01:51:20.681Z,27.98
2023-01-23T01:53:57.933Z,27.99
2023-01-23T01:56:30.251Z,27.98
2023-01-23T01:59:03.014Z,28.00
2023-01-23T02:01:33.494Z,28.00
2023-01-23T02:04:07.719Z,28.02
2023-01-23T02:06:37.925Z,28.00
2023-01-23T02:09:12.541Z,28.02
2023-01-23T02:11:42.977Z,28.01
2023-01-23T02:14:14.398Z,28.03
2023-01-23T02:16:52.425Z,28.02
2023-01-23T02:19:50.135Z,28.04
2023-01-23T02:22:52.614Z,28.04
2023-01-23T02:25:29.532Z,28.05
2023-01-23T02:27:59.949Z,28.06
2023-01-23T02:30:32.196Z,28.08
2023-01-23T02:33:15.149Z,28.08
2023-01-23T02:35:45.496Z,28.08
2023-01-23T02:38:17.109Z,28.07
2023-01-23T02:40:47.410Z,28.08
2023-01-23T02:43:28.379Z,28.10
2023-01-23T02:46:13.203Z,28.08
2023-01-23T02:48:43.463Z,28.09
2023-01-23T02:51:13.815Z,28.10
2023-01-23T02:53:44.754Z,28.12
2023-01-23T02:56:14.948Z,28.13
2023-01-23T02:59:04.377Z,28.13
2023-01-23T03:01:38.010Z,28.13
2023-01-23T03:04:08.727Z,28.13
2023-01-23T03:06:39.963Z,28.17
2023-01-23T03:09:14.940Z,28.16
2023-01-23T03:11:47.101Z,28.17
2023-01-23T03:14:22.668Z,28.16
2023-01-23T03:16:54.883Z,28.17
2023-01-23T03:19:31.889Z,28.18
2023-01-23T03:22:02.213Z,28.18
2023-01-23T03:24:32.271Z,28.18
2023-01-23T03:27:02.380Z,28.19
2023-01-23T03:29:56.947Z,28.19
2023-01-23T03:32:28.340Z,28.22
2023-01-23T03:35:00.264Z,28.22
2023-01-23T03:37:30.772Z,28.22
2023-01-23T03:40:20.134Z,28.25
2023-01-23T03:42:50.569Z,28.25
2023-01-23T03:45:27.526Z,28.27
2023-01-23T03:47:57.677Z,28.26
2023-01-23T03:50:27.877Z,28.27
2023-01-23T03:52:58.002Z,28.26
2023-01-23T03:55:28.615Z,28.26
2023-01-23T03:57:58.704Z,28.26
2023-01-23T04:00:33.925Z,28.26
2023-01-23T04:03:08.305Z,28.29
2023-01-23T04:05:40.595Z,28.30
2023-01-23T04:08:10.740Z,28.30
2023-01-23T04:10:40.628Z,28.30
2023-01-23T04:13:16.857Z,28.30
2023-01-23T04:15:47.626Z,28.33
2023-01-23T04:18:18.820Z,28.32
2023-01-23T04:20:48.832Z,28.33
2023-01-23T04:23:19.568Z,28.33
2023-01-23T04:25:50.097Z,28.35
2023-01-23T04:28:20.843Z,28.35
2023-01-23T04:30:53.850Z,28.35
2023-01-23T04:33:31.084Z,28.35
2023-01-23T04:36:04.045Z,28.36
2023-01-23T04:38:36.184Z,28.35
2023-01-23T04:41:28.242Z,28.33
2023-01-23T04:44:22.123Z,28.33
2023-01-23T04:47:12.097Z,28.36
2023-01-23T04:49:42.956Z,28.36
2023-01-23T04:52:13.269Z,28.37
2023-01-23T04:54:47.917Z,28.37
2023-01-23T04:57:18.275Z,28.39
2023-01-23T04:59:48.684Z,28.38
2023-01-23T05:02:18.943Z,28.40
2023-01-23T05:04:49.198Z,28.41
2023-01-23T05:07:19.408Z,28.42
2023-01-23T05:10:05.480Z,28.41
2023-01-23T05:12:36.599Z,28.42
2023-01-23T05:15:08.471Z,28.41
2023-01-23T05:17:41.128Z,28.44
2023-01-23T05:20:12.763Z,28.44
2023-01-23T05:22:54.398Z,28.45
2023-01-23T05:25:32.608Z,28.41
2023-01-23T05:28:04.796Z,28.44
2023-01-23T05:30:37.243Z,28.43
2023-01-23T05:33:20.427Z,28.44
2023-01-23T05:35:50.812Z,28.45
2023-01-23T05:38:21.655Z,28.46
2023-01-23T05:40:51.951Z,28.48
2023-01-23T05:43:41.410Z,28.48
2023-01-23T05:46:29.735Z,28.46
2023-01-23T05:48:59.939Z,28.47
2023-01-23T05:51:34.620Z,28.50
2023-01-23T05:54:05.698Z,28.48
2023-01-23T05:56:37.223Z,28.52
2023-01-23T05:59:25.824Z,28.51
2023-01-23T06:02:17.247Z,28.53
2023-01-23T06:05:06.058Z,28.50
2023-01-23T06:07:54.224Z,28.51
2023-01-23T06:10:24.438Z,28.50
2023-01-23T06:12:54.952Z,28.49
2023-01-23T06:15:25.359Z,28.50
2023-01-23T06:17:57.864Z,28.51
2023-01-23T06:20:29.002Z,28.52
2023-01-23T06:22:59.809Z,28.51
2023-01-23T06:25:31.172Z,28.52
2023-01-23T06:28:04.386Z,28.53
2023-01-23T06:30:37.122Z,28.54
2023-01-23T06:33:12.812Z,28.54
2023-01-23T06:35:44.752Z,28.53
2023-01-23T06:38:14.850Z,28.56
2023-01-23T06:40:46.939Z,28.57
2023-01-23T06:43:31.198Z,28.56
2023-01-23T06:46:01.778Z,28.57
2023-01-23T06:48:32.156Z,28.59
2023-01-23T06:51:03.539Z,28.57
2023-01-23T06:53:33.967Z,28.58
2023-01-23T06:56:07.337Z,28.59
2023-01-23T06:58:41.047Z,28.59
2023-01-23T07:01:21.566Z,28.60
2023-01-23T07:04:11.775Z,28.61
2023-01-23T07:06:43.570Z,28.64
2023-01-23T07:09:16.369Z,28.66
2023-01-23T07:11:52.948Z,28.66
2023-01-23T07:14:24.012Z,28.67
2023-01-23T07:16:57.896Z,28.69
2023-01-23T07:19:29.036Z,28.70
2023-01-23T07:22:03.345Z,28.70
2023-01-23T07:24:35.317Z,28.72
2023-01-23T07:27:05.611Z,28.72
2023-01-23T07:29:35.968Z,28.72
2023-01-23T07:32:06.092Z,28.74
2023-01-23T07:34:36.298Z,28.74
2023-01-23T07:37:06.378Z,28.73
2023-01-23T07:39:36.333Z,28.76
2023-01-23T07:42:06.373Z,28.76
2023-01-23T07:44:36.315Z,28.77
2023-01-23T07:47:06.197Z,28.78
2023-01-23T07:49:36.127Z,28.79
2023-01-23T07:52:07.127Z,28.81
2023-01-23T07:54:37.199Z,28.81
2023-01-23T07:57:07.213Z,28.82
2023-01-23T07:59:37.099Z,28.82
2023-01-23T08:02:07.001Z,28.82
2023-01-23T08:04:37.009Z,28.84
2023-01-23T08:07:07.145Z,28.85
2023-01-23T08:09:37.107Z,28.83
2023-01-23T08:12:21.582Z,28.84
2023-01-23T08:14:51.684Z,28.85
2023-01-23T08:17:21.644Z,28.84
2023-01-23T08:19:51.906Z,28.83
2023-01-23T08:22:22.018Z,28.85
2023-01-23T08:24:51.901Z,28.86
2023-01-23T08:27:21.914Z,28.89
2023-01-23T08:29:51.922Z,28.88
2023-01-23T08:32:21.971Z,28.87
2023-01-23T08:34:51.870Z,28.90
2023-01-23T08:37:21.837Z,28.91
2023-01-23T08:39:51.704Z,28.91
2023-01-23T08:42:22.047Z,28.93
2023-01-23T08:44:51.951Z,28.93
2023-01-23T08:47:21.753Z,28.93
2023-01-23T08:49:51.745Z,28.93
2023-01-23T08:52:21.903Z,28.94
2023-01-23T08:54:52.003Z,28.93
2023-01-23T08:57:22.000Z,28.96
2023-01-23T08:59:51.807Z,28.94
2023-01-23T09:02:21.794Z,28.94
2023-01-23T09:04:52.575Z,28.95
2023-01-23T09:07:22.631Z,28.96
2023-01-23T09:09:52.836Z,28.96
2023-01-23T09:12:23.000Z,28.97
2023-01-23T09:14:53.096Z,28.97
2023-01-23T09:17:23.102Z,28.99
2023-01-23T09:19:52.983Z,28.99
2023-01-23T09:22:23.014Z,29.00
2023-01-23T09:24:53.026Z,29.01
2023-01-23T09:27:23.388Z,28.99
2023-01-23T09:29:53.812Z,29.00
2023-01-23T09:32:23.892Z,29.00
2023-01-23T09:34:53.811Z,29.01
2023-01-23T09:37:23.719Z,29.00
2023-01-23T09:39:53.649Z,29.00
2023-01-23T09:42:27.905Z,29.00
2023-01-23T09:45:04.233Z,29.01
2023-01-23T09:48:20.285Z,29.00
2023-01-23T09:51:07.947Z,29.03
2023-01-23T09:53:42.234Z,29.02
2023-01-23T09:56:41.012Z,29.04
2023-01-23T09:59:27.077Z,29.04
2023-01-23T10:01:57.199Z,29.05
2023-01-23T10:04:27.186Z,29.07
2023-01-23T10:07:22.558Z,29.05
2023-01-23T10:09:55.423Z,29.05
2023-01-23T10:12:54.185Z,29.05
2023-01-23T10:16:04.566Z,29.05
2023-01-23T10:18:40.022Z,29.05
2023-01-23T10:21:37.354Z,29.05
2023-01-23T10:24:16.476Z,29.04
2023-01-23T10:26:48.862Z,29.05
2023-01-23T10:29:37.252Z,29.04
2023-01-23T10:32:18.896Z,29.04
2023-01-23T10:35:02.673Z,29.07
2023-01-23T10:38:14.766Z,29.05
2023-01-23T10:41:03.082Z,29.04
2023-01-23T10:43:33.171Z,29.04
2023-01-23T10:46:03.184Z,29.07
2023-01-23T10:48:52.596Z,29.07
2023-01-23T10:51:33.588Z,29.07
2023-01-23T10:54:31.757Z,29.05
2023-01-23T10:57:24.160Z,29.08
2023-01-23T11:00:07.829Z,29.07
2023-01-23T11:02:42.770Z,29.07
2023-01-23T11:05:51.627Z,29.07
2023-01-23T11:08:35.763Z,29.06
2023-01-23T11:11:25.665Z,29.06
2023-01-23T11:14:24.895Z,29.07
2023-01-23T11:17:35.303Z,29.05
2023-01-23T11:20:34.018Z,29.05
2023-01-23T11:23:10.829Z,29.07
2023-01-23T11:25:42.195Z,29.06
2023-01-23T11:28:50.480Z,29.07
2023-01-23T11:31:25.239Z,29.07
2023-01-23T11:33:59.467Z,29.06
2023-01-23T11:36:39.672Z,29.05
2023-01-23T11:39:18.960Z,29.07
2023-01-23T11:41:49.302Z,29.09
2023-01-23T11:44:25.558Z,29.07
2023-01-23T11:47:29.916Z,29.05
2023-01-23T11:50:16.593Z,29.04
2023-01-23T11:52:55.688Z,29.04
2023-01-23T11:55:35.088Z,29.03
2023-01-23T11:58:27.163Z,29.03
2023-01-23T12:01:23.471Z,29.02
2023-01-23T12:04:22.298Z,29.02
2023-01-23T12:06:58.827Z,29.03
2023-01-23T12:09:52.359Z,29.05
2023-01-23T12:12:48.361Z,29.03
2023-01-23T12:15:43.670Z,29.04
2023-01-23T12:18:51.293Z,29.05
2023-01-23T12:21:30.035Z,29.02
2023-01-23T12:24:18.136Z,29.04
2023-01-23T12:27:02.996Z,29.04
2023-01-23T12:29:50.996Z,29.05
2023-01-23T12:32:53.033Z,29.04
2023-01-23T12:35:36.863Z,29.02
2023-01-23T12:38:29.998Z,29.01
2023-01-23T12:41:14.686Z,29.01
2023-01-23T12:44:32.487Z,29.02
2023-01-23T12:47:09.127Z,29.01
2023-01-23T12:50:21.364Z,29.02
2023-01-23T12:56:21.931Z,29.11
2023-01-23T12:59:29.253Z,29.12
2023-01-23T13:02:22.113Z,29.13
2023-01-23T13:05:16.096Z,29.12
2023-01-23T13:07:58.467Z,29.12
2023-01-23T13:10:28.789Z,29.14
2023-01-23T13:12:59.570Z,29.13
2023-01-23T13:15:40.673Z,29.18
2023-01-23T13:18:27.551Z,29.13
2023-01-23T13:21:20.704Z,29.14
2023-01-23T13:24:11.194Z,29.14
2023-01-23T13:26:41.640Z,29.12
2023-01-23T13:29:51.442Z,29.13
2023-01-23T13:32:25.415Z,29.13
2023-01-23T13:34:55.821Z,29.12
2023-01-23T13:37:31.386Z,29.14
2023-01-23T13:40:23.445Z,29.14
2023-01-23T13:42:54.455Z,29.13
2023-01-23T13:45:32.074Z,29.14
2023-01-23T14:20:22.743Z,29.16
2023-01-23T14:22:57.899Z,29.13
2023-01-23T14:25:28.255Z,29.13
2023-01-23T14:28:08.723Z,29.13
2023-01-23T14:30:39.012Z,29.11
2023-01-23T14:33:20.386Z,29.13
2023-01-23T14:35:51.315Z,29.12
2023-01-23T14:38:29.784Z,29.13
2023-01-23T14:41:00.683Z,29.12
2023-01-23T14:43:32.233Z,29.10
2023-01-23T14:46:08.274Z,29.11
2023-01-23T14:48:43.574Z,29.14
2023-01-23T14:51:22.541Z,29.15
2023-01-23T14:54:23.306Z,29.16
2023-01-23T14:56:55.457Z,29.19
2023-01-23T14:59:40.171Z,29.19
2023-01-23T15:02:33.547Z,29.21
2023-01-23T15:05:15.780Z,29.18
2023-01-23T15:08:03.582Z,29.15
2023-01-23T15:10:49.827Z,29.17
2023-01-23T15:13:26.918Z,29.15
2023-01-23T15:16:06.396Z,29.14
2023-01-23T15:18:38.399Z,29.13
2023-01-23T15:21:10.815Z,29.13
2023-01-23T15:23:42.970Z,29.10
2023-01-23T15:26:36.434Z,29.13
2023-01-23T15:29:22.017Z,29.12
2023-01-23T15:31:54.424Z,29.14
2023-01-23T15:34:36.402Z,29.16
2023-01-23T15:37:12.771Z,29.15
2023-01-23T15:39:56.391Z,29.16
2023-01-23T15:42:31.331Z,29.14
2023-01-23T15:45:05.975Z,29.14
2023-01-23T15:47:37.585Z,29.14
2023-01-23T15:50:08.227Z,29.14
2023-01-23T15:52:49.024Z,29.14
2023-01-23T15:55:19.527Z,29.15
2023-01-23T15:57:49.682Z,29.12
2023-01-23T16:00:22.881Z,29.13
2023-01-23T16:02:57.701Z,29.12
2023-01-23T16:05:34.432Z,29.11
2023-01-23T16:08:05.529Z,29.12
2023-01-23T16:10:41.437Z,29.10
2023-01-23T16:13:16.258Z,29.11
2023-01-23T16:15:46.515Z,29.10
2023-01-23T16:18:16.870Z,29.10
2023-01-23T16:20:49.058Z,29.10
2023-01-23T16:23:31.177Z,29.10
2023-01-23T16:26:06.243Z,29.10
2023-01-23T16:28:36.436Z,29.08
2023-01-23T16:31:06.607Z,29.08
2023-01-23T16:33:36.812Z,29.07
2023-01-23T16:36:08.796Z,29.04
2023-01-23T16:38:39.023Z,29.05
2023-01-23T16:41:11.891Z,29.05
2023-01-23T16:43:42.918Z,29.04
2023-01-23T16:46:13.922Z,29.04
2023-01-23T16:48:44.082Z,29.04
2023-01-23T16:51:23.939Z,29.03
2023-01-23T16:54:05.954Z,29.03
2023-01-23T16:56:45.144Z,29.02
2023-01-23T16:59:20.949Z,29.00
2023-01-23T17:01:53.846Z,29.01
2023-01-23T17:04:24.906Z,28.99
2023-01-23T17:06:55.051Z,29.00
2023-01-23T17:09:25.120Z,28.96
2023-01-23T17:11:59.683Z,28.94
2023-01-23T17:14:33.812Z,28.95
2023-01-23T17:17:12.627Z,28.93
2023-01-23T17:19:44.345Z,28.92
2023-01-23T17:22:37.278Z,28.93
2023-01-23T17:25:19.794Z,28.94
2023-01-23T17:28:06.982Z,28.94
2023-01-23T17:30:42.274Z,28.94
2023-01-23T17:33:25.476Z,28.92
2023-01-23T17:35:56.652Z,28.95
2023-01-23T17:38:33.136Z,28.96
2023-01-23T17:41:03.932Z,28.93
2023-01-23T17:43:34.115Z,28.93
2023-01-23T17:46:04.446Z,28.95
2023-01-23T17:48:39.292Z,28.95
2023-01-23T17:51:18.835Z,28.95
2023-01-23T17:56:34.933Z,28.93
2023-01-23T17:59:04.985Z,28.92
2023-01-23T18:01:34.956Z,28.93
2023-01-23T18:04:05.098Z,28.89
2023-01-23T18:06:35.284Z,28.92
2023-01-23T18:09:05.432Z,28.88
2023-01-23T18:11:35.938Z,28.90
2023-01-23T18:14:54.132Z,28.91
2023-01-23T18:17:56.527Z,28.91
2023-01-23T18:20:27.637Z,28.85
2023-01-23T18:22:58.833Z,28.89
2023-01-23T18:25:29.713Z,28.89
2023-01-23T18:28:08.113Z,28.90
2023-01-23T18:30:44.183Z,28.86
2023-01-23T18:33:29.301Z,28.85
2023-01-23T18:36:31.407Z,28.85
2023-01-23T18:39:12.012Z,28.84
2023-01-23T18:41:52.657Z,28.85
2023-01-23T18:44:29.240Z,28.81
2023-01-23T18:46:59.538Z,28.81
2023-01-23T18:49:33.003Z,28.78
2023-01-23T18:52:03.884Z,28.80
2023-01-23T18:54:46.853Z,28.80
2023-01-23T18:57:49.813Z,28.79
2023-01-23T19:00:47.089Z,28.79
2023-01-23T19:03:19.911Z,28.80
2023-01-23T19:05:50.307Z,28.81
2023-01-23T19:08:33.882Z,28.79
2023-01-23T19:11:11.478Z,28.82
2023-01-23T19:13:54.131Z,28.77
2023-01-23T19:16:32.616Z,28.78
2023-01-23T19:19:25.751Z,28.79
2023-01-23T19:21:56.080Z,28.76
2023-01-23T19:24:27.671Z,28.76
2023-01-23T19:26:58.785Z,28.74
2023-01-23T19:29:29.034Z,28.73
2023-01-23T19:32:05.147Z,28.72
2023-01-23T19:34:36.592Z,28.73
2023-01-23T19:37:07.191Z,28.68
2023-01-23T19:39:37.197Z,28.73
2023-01-23T19:42:07.489Z,28.70
2023-01-23T19:44:37.409Z,28.72
2023-01-23T19:47:08.919Z,28.73
2023-01-23T19:49:39.137Z,28.68
2023-01-23T19:52:09.302Z,28.72
2023-01-23T19:54:39.189Z,28.72
2023-01-23T19:57:09.555Z,28.71
2023-01-23T19:59:39.688Z,28.70
2023-01-23T20:02:22.882Z,28.72
2023-01-23T20:04:54.722Z,28.72
2023-01-23T20:07:24.976Z,28.72
2023-01-23T20:09:55.155Z,28.70
2023-01-23T20:12:25.114Z,28.66
2023-01-23T20:14:55.242Z,28.67
2023-01-23T20:17:25.631Z,28.65
2023-01-23T20:19:55.759Z,28.66
2023-01-23T20:22:25.663Z,28.66
2023-01-23T20:24:55.486Z,28.62
2023-01-23T20:27:25.584Z,28.65
2023-01-23T20:29:55.617Z,28.63
2023-01-23T20:32:25.712Z,28.61
2023-01-23T20:34:57.644Z,28.63
2023-01-23T20:37:28.650Z,28.62
2023-01-23T20:39:58.786Z,28.64
2023-01-23T20:42:28.741Z,28.60
2023-01-23T20:44:58.774Z,28.57
2023-01-23T20:47:29.540Z,28.59
2023-01-23T20:49:59.622Z,28.56
2023-01-23T20:52:47.690Z,28.61
2023-01-23T20:55:17.888Z,28.57
2023-01-23T20:58:06.079Z,28.61
2023-01-23T21:00:36.085Z,28.56
2023-01-23T21:03:06.204Z,28.57
2023-01-23T21:05:36.233Z,28.55
2023-01-23T21:08:06.146Z,28.58
2023-01-23T21:10:36.060Z,28.59
2023-01-23T21:13:06.071Z,28.57
2023-01-23T21:15:35.934Z,28.54
2023-01-23T21:18:05.929Z,28.55
2023-01-23T21:20:35.977Z,28.54
2023-01-23T21:23:05.931Z,28.52
2023-01-23T21:25:38.095Z,28.56
2023-01-23T21:28:08.193Z,28.52
2023-01-23T21:30:41.085Z,28.52
2023-01-23T21:33:11.204Z,28.54
2023-01-23T21:35:41.264Z,28.50
2023-01-23T21:38:11.086Z,28.50
2023-01-23T21:40:40.997Z,28.51
2023-01-23T21:43:10.977Z,28.48
2023-01-23T21:45:40.935Z,28.52
2023-01-23T21:48:10.909Z,28.48
2023-01-23T21:50:40.819Z,28.51
2023-01-23T21:53:10.739Z,28.50
2023-01-23T21:55:40.649Z,28.50
2023-01-23T21:58:10.705Z,28.50
2023-01-23T22:00:58.962Z,28.49
2023-01-23T22:03:29.043Z,28.50
2023-01-23T22:06:01.894Z,28.47
2023-01-23T22:08:31.883Z,28.49
2023-01-23T22:11:01.760Z,28.44
2023-01-23T22:13:31.914Z,28.45
2023-01-23T22:16:02.627Z,28.47
2023-01-23T22:18:33.427Z,28.46
2023-01-23T22:21:06.310Z,28.48
2023-01-23T22:23:36.870Z,28.49
2023-01-23T22:26:09.613Z,28.48
2023-01-23T22:28:39.744Z,28.47
2023-01-23T22:31:13.087Z,28.44
2023-01-23T22:33:46.048Z,28.47
2023-01-23T22:36:20.008Z,28.49
2023-01-23T22:38:54.448Z,28.47
2023-01-23T22:41:25.384Z,28.46
2023-01-23T22:44:01.425Z,28.46
2023-01-23T22:46:31.769Z,28.50
2023-01-23T22:49:01.974Z,28.41
2023-01-23T22:54:08.305Z,28.41
2023-01-23T22:56:38.590Z,28.35
2023-01-23T22:59:08.735Z,28.31
2023-01-23T23:01:38.809Z,28.20
2023-01-23T23:04:08.675Z,28.20
2023-01-23T23:06:38.643Z,28.14
2023-01-23T23:09:08.748Z,28.11
2023-01-23T23:11:39.585Z,28.14
2023-01-23T23:14:09.707Z,28.16
2023-01-23T23:16:39.636Z,28.18
2023-01-23T23:19:09.519Z,28.19
2023-01-23T23:21:40.458Z,28.18
2023-01-23T23:24:14.707Z,28.18
2023-01-23T23:26:44.877Z,28.19
2023-01-23T23:29:14.715Z,28.19
2023-01-23T23:31:44.944Z,28.20
2023-01-23T23:34:15.093Z,28.19
2023-01-23T23:36:45.291Z,28.17
2023-01-23T23:39:15.835Z,28.16
2023-01-23T23:41:45.901Z,28.16
2023-01-23T23:44:15.880Z,28.18
2023-01-23T23:46:45.847Z,28.17
2023-01-23T23:49:15.809Z,28.14
2023-01-23T23:51:45.720Z,28.17
2023-01-23T23:54:15.613Z,28.17
2023-01-23T23:56:45.817Z,28.14
2023-01-23T23:59:19.531Z,28.10
